sensor_id;sensor_type;location;lat;lon;timestamp;P1;durP1;ratioP1;P2;durP2;ratioP2
24357;SDS011;13668;52.154;5.580;2022-08-05T00:01:16;4.93;;;2.60;;
24357;SDS011;13668;52.154;5.580;2022-08-05T00:03:42;3.45;;;2.42;;
24357;SDS011;13668;52.154;5.580;2022-08-05T00:06:08;4.57;;;2.28;;
24357;SDS011;13668;52.154;5.580;2022-08-05T00:08:34;4.53;;;2.20;;
24357;SDS011;13668;52.154;5.580;2022-08-05T00:11:02;7.40;;;2.25;;
24357;SDS011;13668;52.154;5.580;2022-08-05T00:13:34;4.25;;;1.90;;
24357;SDS011;13668;52.154;5.580;2022-08-05T00:16:01;4.35;;;1.80;;
24357;SDS011;13668;52.154;5.580;2022-08-05T00:18:27;4.25;;;2.20;;
24357;SDS011;13668;52.154;5.580;2022-08-05T00:20:54;4.03;;;2.10;;
24357;SDS011;13668;52.154;5.580;2022-08-05T00:23:20;4.88;;;1.95;;
24357;SDS011;13668;52.154;5.580;2022-08-05T00:25:46;5.82;;;2.28;;
24357;SDS011;13668;52.154;5.580;2022-08-05T00:28:12;5.63;;;2.17;;
24357;SDS011;13668;52.154;5.580;2022-08-05T00:30:38;5.00;;;2.65;;
24357;SDS011;13668;52.154;5.580;2022-08-05T00:33:04;4.80;;;2.05;;
24357;SDS011;13668;52.154;5.580;2022-08-05T00:35:30;6.00;;;2.05;;
24357;SDS011;13668;52.154;5.580;2022-08-05T00:37:56;4.72;;;1.83;;
24357;SDS011;13668;52.154;5.580;2022-08-05T00:40:23;8.43;;;2.35;;
24357;SDS011;13668;52.154;5.580;2022-08-05T00:42:50;4.45;;;2.00;;
24357;SDS011;13668;52.154;5.580;2022-08-05T00:45:15;5.18;;;2.42;;
24357;SDS011;13668;52.154;5.580;2022-08-05T00:47:41;3.88;;;1.80;;
24357;SDS011;13668;52.154;5.580;2022-08-05T00:50:08;3.20;;;1.88;;
24357;SDS011;13668;52.154;5.580;2022-08-05T00:52:34;7.75;;;2.50;;
24357;SDS011;13668;52.154;5.580;2022-08-05T00:55:00;6.72;;;2.20;;
24357;SDS011;13668;52.154;5.580;2022-08-05T00:57:26;4.32;;;2.20;;
24357;SDS011;13668;52.154;5.580;2022-08-05T00:59:52;9.85;;;3.03;;
24357;SDS011;13668;52.154;5.580;2022-08-05T01:02:18;4.18;;;1.73;;
24357;SDS011;13668;52.154;5.580;2022-08-05T01:04:44;7.05;;;2.10;;
24357;SDS011;13668;52.154;5.580;2022-08-05T01:07:10;5.53;;;2.00;;
24357;SDS011;13668;52.154;5.580;2022-08-05T01:09:36;6.22;;;2.35;;
24357;SDS011;13668;52.154;5.580;2022-08-05T01:12:03;4.50;;;3.08;;
24357;SDS011;13668;52.154;5.580;2022-08-05T01:14:32;7.68;;;2.25;;
24357;SDS011;13668;52.154;5.580;2022-08-05T01:17:07;6.05;;;2.50;;
24357;SDS011;13668;52.154;5.580;2022-08-05T01:19:42;5.72;;;2.08;;
24357;SDS011;13668;52.154;5.580;2022-08-05T01:30:20;7.13;;;2.22;;
24357;SDS011;13668;52.154;5.580;2022-08-05T01:32:46;8.48;;;2.50;;
24357;SDS011;13668;52.154;5.580;2022-08-05T01:35:15;5.47;;;2.47;;
24357;SDS011;13668;52.154;5.580;2022-08-05T01:37:46;4.22;;;2.10;;
24357;SDS011;13668;52.154;5.580;2022-08-05T01:40:14;4.55;;;2.05;;
24357;SDS011;13668;52.154;5.580;2022-08-05T01:42:42;5.97;;;2.35;;
24357;SDS011;13668;52.154;5.580;2022-08-05T01:45:09;3.53;;;2.17;;
24357;SDS011;13668;52.154;5.580;2022-08-05T01:47:35;5.95;;;2.35;;
24357;SDS011;13668;52.154;5.580;2022-08-05T01:50:03;6.57;;;2.22;;
24357;SDS011;13668;52.154;5.580;2022-08-05T01:52:30;5.05;;;2.20;;
24357;SDS011;13668;52.154;5.580;2022-08-05T01:55:00;8.15;;;1.90;;
24357;SDS011;13668;52.154;5.580;2022-08-05T01:57:30;5.85;;;2.00;;
24357;SDS011;13668;52.154;5.580;2022-08-05T02:00:00;4.78;;;2.00;;
24357;SDS011;13668;52.154;5.580;2022-08-05T02:02:27;3.92;;;2.10;;
24357;SDS011;13668;52.154;5.580;2022-08-05T02:04:55;5.22;;;1.95;;
24357;SDS011;13668;52.154;5.580;2022-08-05T02:07:22;3.08;;;1.92;;
24357;SDS011;13668;52.154;5.580;2022-08-05T02:09:49;5.20;;;1.85;;
24357;SDS011;13668;52.154;5.580;2022-08-05T02:12:26;3.75;;;1.83;;
24357;SDS011;13668;52.154;5.580;2022-08-05T02:17:38;4.68;;;2.10;;
24357;SDS011;13668;52.154;5.580;2022-08-05T02:20:06;5.22;;;1.90;;
24357;SDS011;13668;52.154;5.580;2022-08-05T02:22:41;4.75;;;2.08;;
24357;SDS011;13668;52.154;5.580;2022-08-05T02:25:11;4.10;;;2.13;;
24357;SDS011;13668;52.154;5.580;2022-08-05T02:27:39;7.50;;;2.53;;
24357;SDS011;13668;52.154;5.580;2022-08-05T02:30:07;5.18;;;2.03;;
24357;SDS011;13668;52.154;5.580;2022-08-05T02:32:33;4.82;;;2.05;;
24357;SDS011;13668;52.154;5.580;2022-08-05T02:35:04;5.78;;;2.45;;
24357;SDS011;13668;52.154;5.580;2022-08-05T02:37:30;3.85;;;2.42;;
24357;SDS011;13668;52.154;5.580;2022-08-05T02:39:58;5.03;;;1.92;;
24357;SDS011;13668;52.154;5.580;2022-08-05T02:42:25;3.20;;;2.20;;
24357;SDS011;13668;52.154;5.580;2022-08-05T02:44:51;4.03;;;2.13;;
24357;SDS011;13668;52.154;5.580;2022-08-05T02:47:18;3.10;;;1.98;;
24357;SDS011;13668;52.154;5.580;2022-08-05T02:49:45;6.28;;;2.65;;
24357;SDS011;13668;52.154;5.580;2022-08-05T02:52:15;4.75;;;2.05;;
24357;SDS011;13668;52.154;5.580;2022-08-05T02:54:42;4.90;;;2.20;;
24357;SDS011;13668;52.154;5.580;2022-08-05T02:57:09;3.88;;;1.92;;
24357;SDS011;13668;52.154;5.580;2022-08-05T02:59:36;5.78;;;2.40;;
24357;SDS011;13668;52.154;5.580;2022-08-05T03:02:02;7.53;;;2.60;;
24357;SDS011;13668;52.154;5.580;2022-08-05T03:04:29;4.45;;;2.50;;
24357;SDS011;13668;52.154;5.580;2022-08-05T03:06:55;4.55;;;2.45;;
24357;SDS011;13668;52.154;5.580;2022-08-05T03:09:25;6.13;;;1.95;;
24357;SDS011;13668;52.154;5.580;2022-08-05T03:11:51;6.57;;;2.42;;
24357;SDS011;13668;52.154;5.580;2022-08-05T03:14:17;6.20;;;2.20;;
24357;SDS011;13668;52.154;5.580;2022-08-05T03:16:43;3.25;;;2.00;;
24357;SDS011;13668;52.154;5.580;2022-08-05T03:19:09;6.70;;;2.50;;
24357;SDS011;13668;52.154;5.580;2022-08-05T03:21:35;6.32;;;2.25;;
24357;SDS011;13668;52.154;5.580;2022-08-05T03:24:04;5.93;;;2.22;;
24357;SDS011;13668;52.154;5.580;2022-08-05T03:26:30;5.82;;;2.28;;
24357;SDS011;13668;52.154;5.580;2022-08-05T03:28:57;4.28;;;1.95;;
24357;SDS011;13668;52.154;5.580;2022-08-05T03:31:23;4.53;;;1.98;;
24357;SDS011;13668;52.154;5.580;2022-08-05T03:33:50;3.83;;;2.30;;
24357;SDS011;13668;52.154;5.580;2022-08-05T03:36:16;4.85;;;2.15;;
24357;SDS011;13668;52.154;5.580;2022-08-05T03:38:42;4.72;;;2.35;;
24357;SDS011;13668;52.154;5.580;2022-08-05T03:41:08;5.43;;;2.10;;
24357;SDS011;13668;52.154;5.580;2022-08-05T03:43:34;7.15;;;2.53;;
24357;SDS011;13668;52.154;5.580;2022-08-05T03:46:00;2.75;;;2.50;;
24357;SDS011;13668;52.154;5.580;2022-08-05T03:48:26;4.15;;;2.33;;
24357;SDS011;13668;52.154;5.580;2022-08-05T03:56:28;5.05;;;2.40;;
24357;SDS011;13668;52.154;5.580;2022-08-05T03:58:58;7.80;;;2.70;;
24357;SDS011;13668;52.154;5.580;2022-08-05T04:01:25;5.18;;;2.38;;
24357;SDS011;13668;52.154;5.580;2022-08-05T04:03:53;6.05;;;2.40;;
24357;SDS011;13668;52.154;5.580;2022-08-05T04:06:20;7.57;;;2.72;;
24357;SDS011;13668;52.154;5.580;2022-08-05T04:08:46;5.50;;;2.83;;
24357;SDS011;13668;52.154;5.580;2022-08-05T04:11:12;6.85;;;2.47;;
24357;SDS011;13668;52.154;5.580;2022-08-05T04:13:39;4.40;;;2.40;;
24357;SDS011;13668;52.154;5.580;2022-08-05T04:16:06;6.22;;;2.58;;
24357;SDS011;13668;52.154;5.580;2022-08-05T04:18:33;2.95;;;2.70;;
24357;SDS011;13668;52.154;5.580;2022-08-05T04:20:59;4.95;;;2.47;;
24357;SDS011;13668;52.154;5.580;2022-08-05T04:23:26;10.90;;;2.83;;
24357;SDS011;13668;52.154;5.580;2022-08-05T04:25:52;4.00;;;2.50;;
24357;SDS011;13668;52.154;5.580;2022-08-05T04:28:19;8.65;;;3.03;;
24357;SDS011;13668;52.154;5.580;2022-08-05T04:30:45;3.92;;;2.90;;
24357;SDS011;13668;52.154;5.580;2022-08-05T04:33:12;6.00;;;3.13;;
24357;SDS011;13668;52.154;5.580;2022-08-05T04:35:38;5.15;;;3.08;;
24357;SDS011;13668;52.154;5.580;2022-08-05T04:38:04;5.03;;;2.92;;
24357;SDS011;13668;52.154;5.580;2022-08-05T04:40:37;7.93;;;3.17;;
24357;SDS011;13668;52.154;5.580;2022-08-05T04:43:03;7.00;;;3.28;;
24357;SDS011;13668;52.154;5.580;2022-08-05T04:45:29;4.55;;;2.88;;
24357;SDS011;13668;52.154;5.580;2022-08-05T04:48:02;6.00;;;2.83;;
24357;SDS011;13668;52.154;5.580;2022-08-05T04:50:28;5.60;;;3.70;;
24357;SDS011;13668;52.154;5.580;2022-08-05T04:52:54;5.22;;;3.20;;
24357;SDS011;13668;52.154;5.580;2022-08-05T04:55:20;6.57;;;3.28;;
24357;SDS011;13668;52.154;5.580;2022-08-05T04:57:46;6.95;;;4.07;;
24357;SDS011;13668;52.154;5.580;2022-08-05T05:00:12;5.18;;;3.45;;
24357;SDS011;13668;52.154;5.580;2022-08-05T05:02:38;9.55;;;3.65;;
24357;SDS011;13668;52.154;5.580;2022-08-05T05:05:04;4.95;;;3.60;;
24357;SDS011;13668;52.154;5.580;2022-08-05T05:07:30;9.10;;;3.70;;
24357;SDS011;13668;52.154;5.580;2022-08-05T05:09:56;3.65;;;2.88;;
24357;SDS011;13668;52.154;5.580;2022-08-05T05:12:22;5.20;;;4.13;;
24357;SDS011;13668;52.154;5.580;2022-08-05T05:14:48;5.13;;;4.45;;
24357;SDS011;13668;52.154;5.580;2022-08-05T05:17:14;5.72;;;3.30;;
24357;SDS011;13668;52.154;5.580;2022-08-05T05:19:40;3.80;;;3.42;;
24357;SDS011;13668;52.154;5.580;2022-08-05T05:22:09;6.32;;;3.65;;
24357;SDS011;13668;52.154;5.580;2022-08-05T05:24:35;5.93;;;3.50;;
24357;SDS011;13668;52.154;5.580;2022-08-05T05:27:00;6.82;;;4.05;;
24357;SDS011;13668;52.154;5.580;2022-08-05T05:29:26;8.10;;;3.90;;
24357;SDS011;13668;52.154;5.580;2022-08-05T05:31:52;4.82;;;3.53;;
24357;SDS011;13668;52.154;5.580;2022-08-05T05:34:20;5.38;;;3.80;;
24357;SDS011;13668;52.154;5.580;2022-08-05T05:36:46;4.63;;;3.60;;
24357;SDS011;13668;52.154;5.580;2022-08-05T05:39:12;4.78;;;3.10;;
24357;SDS011;13668;52.154;5.580;2022-08-05T05:41:38;6.57;;;3.80;;
24357;SDS011;13668;52.154;5.580;2022-08-05T05:44:04;7.47;;;3.65;;
24357;SDS011;13668;52.154;5.580;2022-08-05T05:46:30;6.72;;;3.45;;
24357;SDS011;13668;52.154;5.580;2022-08-05T05:48:56;5.00;;;3.28;;
24357;SDS011;13668;52.154;5.580;2022-08-05T05:51:23;6.65;;;3.35;;
24357;SDS011;13668;52.154;5.580;2022-08-05T05:53:52;4.53;;;3.75;;
24357;SDS011;13668;52.154;5.580;2022-08-05T05:56:19;5.30;;;2.58;;
24357;SDS011;13668;52.154;5.580;2022-08-05T05:58:45;4.38;;;2.97;;
24357;SDS011;13668;52.154;5.580;2022-08-05T06:01:14;5.70;;;3.33;;
24357;SDS011;13668;52.154;5.580;2022-08-05T06:03:40;4.80;;;3.33;;
24357;SDS011;13668;52.154;5.580;2022-08-05T06:06:24;5.43;;;2.88;;
24357;SDS011;13668;52.154;5.580;2022-08-05T06:08:50;3.42;;;2.88;;
24357;SDS011;13668;52.154;5.580;2022-08-05T06:11:16;4.78;;;2.45;;
24357;SDS011;13668;52.154;5.580;2022-08-05T06:13:42;4.38;;;2.60;;
24357;SDS011;13668;52.154;5.580;2022-08-05T06:16:08;4.75;;;2.70;;
24357;SDS011;13668;52.154;5.580;2022-08-05T06:18:34;3.33;;;2.80;;
24357;SDS011;13668;52.154;5.580;2022-08-05T06:21:01;8.77;;;2.70;;
24357;SDS011;13668;52.154;5.580;2022-08-05T06:23:27;4.72;;;2.30;;
24357;SDS011;13668;52.154;5.580;2022-08-05T06:25:53;5.93;;;2.92;;
24357;SDS011;13668;52.154;5.580;2022-08-05T06:28:19;5.55;;;2.10;;
24357;SDS011;13668;52.154;5.580;2022-08-05T06:30:45;3.55;;;2.05;;
24357;SDS011;13668;52.154;5.580;2022-08-05T06:33:11;4.65;;;1.80;;
24357;SDS011;13668;52.154;5.580;2022-08-05T06:35:37;5.15;;;1.77;;
24357;SDS011;13668;52.154;5.580;2022-08-05T06:38:03;2.95;;;2.10;;
24357;SDS011;13668;52.154;5.580;2022-08-05T06:40:29;4.07;;;1.70;;
24357;SDS011;13668;52.154;5.580;2022-08-05T06:42:55;4.18;;;1.52;;
24357;SDS011;13668;52.154;5.580;2022-08-05T06:45:21;5.90;;;2.33;;
24357;SDS011;13668;52.154;5.580;2022-08-05T06:47:47;3.15;;;1.98;;
24357;SDS011;13668;52.154;5.580;2022-08-05T06:50:13;3.97;;;1.77;;
24357;SDS011;13668;52.154;5.580;2022-08-05T06:52:39;3.50;;;1.67;;
24357;SDS011;13668;52.154;5.580;2022-08-05T06:55:05;4.57;;;1.38;;
24357;SDS011;13668;52.154;5.580;2022-08-05T06:57:31;2.53;;;1.15;;
24357;SDS011;13668;52.154;5.580;2022-08-05T06:59:57;2.42;;;1.38;;
24357;SDS011;13668;52.154;5.580;2022-08-05T07:02:23;2.75;;;1.60;;
24357;SDS011;13668;52.154;5.580;2022-08-05T07:04:52;2.83;;;1.60;;
24357;SDS011;13668;52.154;5.580;2022-08-05T07:07:18;4.35;;;1.58;;
24357;SDS011;13668;52.154;5.580;2022-08-05T07:09:44;2.92;;;1.42;;
24357;SDS011;13668;52.154;5.580;2022-08-05T07:12:10;3.20;;;1.40;;
24357;SDS011;13668;52.154;5.580;2022-08-05T07:14:59;4.72;;;1.40;;
24357;SDS011;13668;52.154;5.580;2022-08-05T07:17:43;3.97;;;1.13;;
24357;SDS011;13668;52.154;5.580;2022-08-05T07:20:09;2.13;;;1.10;;
24357;SDS011;13668;52.154;5.580;2022-08-05T07:22:35;2.67;;;1.27;;
24357;SDS011;13668;52.154;5.580;2022-08-05T07:25:02;2.20;;;0.90;;
24357;SDS011;13668;52.154;5.580;2022-08-05T07:27:28;3.10;;;1.23;;
24357;SDS011;13668;52.154;5.580;2022-08-05T07:29:56;4.50;;;1.00;;
24357;SDS011;13668;52.154;5.580;2022-08-05T07:32:22;2.67;;;1.17;;
24357;SDS011;13668;52.154;5.580;2022-08-05T07:34:48;1.83;;;0.90;;
24357;SDS011;13668;52.154;5.580;2022-08-05T07:37:14;1.27;;;0.73;;
24357;SDS011;13668;52.154;5.580;2022-08-05T07:39:40;2.00;;;0.88;;
24357;SDS011;13668;52.154;5.580;2022-08-05T07:42:06;1.05;;;0.63;;
24357;SDS011;13668;52.154;5.580;2022-08-05T07:44:32;3.08;;;0.68;;
24357;SDS011;13668;52.154;5.580;2022-08-05T07:46:58;0.80;;;0.50;;
24357;SDS011;13668;52.154;5.580;2022-08-05T07:49:24;1.48;;;0.60;;
24357;SDS011;13668;52.154;5.580;2022-08-05T07:51:50;1.30;;;0.70;;
24357;SDS011;13668;52.154;5.580;2022-08-05T07:54:16;0.77;;;0.60;;
24357;SDS011;13668;52.154;5.580;2022-08-05T07:56:42;1.33;;;0.52;;
24357;SDS011;13668;52.154;5.580;2022-08-05T07:59:08;1.50;;;0.43;;
24357;SDS011;13668;52.154;5.580;2022-08-05T08:01:40;0.65;;;0.43;;
24357;SDS011;13668;52.154;5.580;2022-08-05T08:04:06;1.15;;;0.30;;
24357;SDS011;13668;52.154;5.580;2022-08-05T08:06:32;1.33;;;0.38;;
24357;SDS011;13668;52.154;5.580;2022-08-05T08:08:58;1.95;;;0.30;;
24357;SDS011;13668;52.154;5.580;2022-08-05T08:11:26;0.75;;;0.43;;
24357;SDS011;13668;52.154;5.580;2022-08-05T08:13:53;1.52;;;0.50;;
24357;SDS011;13668;52.154;5.580;2022-08-05T08:16:19;1.67;;;0.40;;
24357;SDS011;13668;52.154;5.580;2022-08-05T08:18:45;1.83;;;0.30;;
24357;SDS011;13668;52.154;5.580;2022-08-05T08:21:11;2.28;;;0.50;;
24357;SDS011;13668;52.154;5.580;2022-08-05T08:23:37;0.55;;;0.28;;
24357;SDS011;13668;52.154;5.580;2022-08-05T08:26:03;1.27;;;0.57;;
24357;SDS011;13668;52.154;5.580;2022-08-05T08:28:29;0.98;;;0.20;;
24357;SDS011;13668;52.154;5.580;2022-08-05T08:30:55;1.17;;;0.20;;
24357;SDS011;13668;52.154;5.580;2022-08-05T08:33:21;1.05;;;0.20;;
24357;SDS011;13668;52.154;5.580;2022-08-05T08:35:47;0.38;;;0.13;;
24357;SDS011;13668;52.154;5.580;2022-08-05T08:38:13;0.32;;;0.20;;
24357;SDS011;13668;52.154;5.580;2022-08-05T08:40:40;1.48;;;0.38;;
24357;SDS011;13668;52.154;5.580;2022-08-05T08:43:07;0.75;;;0.20;;
24357;SDS011;13668;52.154;5.580;2022-08-05T08:45:35;1.70;;;0.20;;
24357;SDS011;13668;52.154;5.580;2022-08-05T08:48:02;0.43;;;0.20;;
24357;SDS011;13668;52.154;5.580;2022-08-05T08:50:29;1.05;;;0.28;;
24357;SDS011;13668;52.154;5.580;2022-08-05T08:53:02;1.38;;;0.35;;
24357;SDS011;13668;52.154;5.580;2022-08-05T08:55:29;0.88;;;0.30;;
24357;SDS011;13668;52.154;5.580;2022-08-05T08:57:56;0.45;;;0.20;;
24357;SDS011;13668;52.154;5.580;2022-08-05T09:00:22;2.55;;;0.22;;
24357;SDS011;13668;52.154;5.580;2022-08-05T09:02:49;1.48;;;0.30;;
24357;SDS011;13668;52.154;5.580;2022-08-05T09:05:15;1.42;;;0.20;;
24357;SDS011;13668;52.154;5.580;2022-08-05T09:07:41;2.28;;;0.30;;
24357;SDS011;13668;52.154;5.580;2022-08-05T09:10:07;0.45;;;0.20;;
24357;SDS011;13668;52.154;5.580;2022-08-05T09:12:33;0.85;;;0.20;;
24357;SDS011;13668;52.154;5.580;2022-08-05T09:15:00;0.85;;;0.20;;
24357;SDS011;13668;52.154;5.580;2022-08-05T09:17:27;1.20;;;0.20;;
24357;SDS011;13668;52.154;5.580;2022-08-05T09:19:53;1.15;;;0.20;;
24357;SDS011;13668;52.154;5.580;2022-08-05T09:22:18;0.80;;;0.20;;
24357;SDS011;13668;52.154;5.580;2022-08-05T09:24:55;1.83;;;0.20;;
24357;SDS011;13668;52.154;5.580;2022-08-05T09:27:32;2.08;;;0.30;;
24357;SDS011;13668;52.154;5.580;2022-08-05T09:29:58;0.98;;;0.20;;
24357;SDS011;13668;52.154;5.580;2022-08-05T09:32:34;1.40;;;0.30;;
24357;SDS011;13668;52.154;5.580;2022-08-05T09:35:03;1.70;;;0.60;;
24357;SDS011;13668;52.154;5.580;2022-08-05T09:37:33;2.10;;;0.50;;
24357;SDS011;13668;52.154;5.580;2022-08-05T09:39:59;1.48;;;0.20;;
24357;SDS011;13668;52.154;5.580;2022-08-05T09:42:25;1.40;;;0.50;;
24357;SDS011;13668;52.154;5.580;2022-08-05T09:44:53;0.98;;;0.20;;
24357;SDS011;13668;52.154;5.580;2022-08-05T09:47:20;1.58;;;0.30;;
24357;SDS011;13668;52.154;5.580;2022-08-05T09:52:22;0.60;;;0.20;;
24357;SDS011;13668;52.154;5.580;2022-08-05T09:57:28;1.48;;;0.35;;
24357;SDS011;13668;52.154;5.580;2022-08-05T10:00:01;1.30;;;0.45;;
24357;SDS011;13668;52.154;5.580;2022-08-05T10:02:31;0.45;;;0.30;;
24357;SDS011;13668;52.154;5.580;2022-08-05T10:07:54;0.85;;;0.22;;
24357;SDS011;13668;52.154;5.580;2022-08-05T10:10:21;2.85;;;0.30;;
24357;SDS011;13668;52.154;5.580;2022-08-05T10:12:48;2.83;;;0.40;;
24357;SDS011;13668;52.154;5.580;2022-08-05T10:15:19;0.80;;;0.30;;
24357;SDS011;13668;52.154;5.580;2022-08-05T10:20:30;1.27;;;0.30;;
24357;SDS011;13668;52.154;5.580;2022-08-05T10:22:56;3.58;;;0.40;;
24357;SDS011;13668;52.154;5.580;2022-08-05T10:25:22;0.55;;;0.20;;
24357;SDS011;13668;52.154;5.580;2022-08-05T10:27:48;1.17;;;0.30;;
24357;SDS011;13668;52.154;5.580;2022-08-05T10:30:14;1.42;;;0.30;;
24357;SDS011;13668;52.154;5.580;2022-08-05T10:32:40;1.85;;;0.13;;
24357;SDS011;13668;52.154;5.580;2022-08-05T10:35:06;3.25;;;0.20;;
24357;SDS011;13668;52.154;5.580;2022-08-05T10:37:32;1.63;;;0.30;;
24357;SDS011;13668;52.154;5.580;2022-08-05T10:40:00;0.30;;;0.20;;
24357;SDS011;13668;52.154;5.580;2022-08-05T10:42:28;2.08;;;0.35;;
24357;SDS011;13668;52.154;5.580;2022-08-05T10:45:00;1.13;;;0.43;;
24357;SDS011;13668;52.154;5.580;2022-08-05T10:47:30;2.17;;;0.20;;
24357;SDS011;13668;52.154;5.580;2022-08-05T10:52:40;3.72;;;0.30;;
24357;SDS011;13668;52.154;5.580;2022-08-05T10:55:11;0.47;;;0.10;;
24357;SDS011;13668;52.154;5.580;2022-08-05T10:57:38;4.68;;;0.30;;
24357;SDS011;13668;52.154;5.580;2022-08-05T11:00:09;2.88;;;0.40;;
24357;SDS011;13668;52.154;5.580;2022-08-05T11:02:35;1.02;;;0.20;;
24357;SDS011;13668;52.154;5.580;2022-08-05T11:05:03;1.63;;;0.40;;
24357;SDS011;13668;52.154;5.580;2022-08-05T11:07:29;0.75;;;0.30;;
24357;SDS011;13668;52.154;5.580;2022-08-05T11:09:55;3.13;;;0.60;;
24357;SDS011;13668;52.154;5.580;2022-08-05T11:12:40;1.38;;;0.20;;
24357;SDS011;13668;52.154;5.580;2022-08-05T11:17:40;1.98;;;0.20;;
24357;SDS011;13668;52.154;5.580;2022-08-05T11:20:07;3.50;;;0.32;;
24357;SDS011;13668;52.154;5.580;2022-08-05T11:22:40;3.03;;;0.40;;
24357;SDS011;13668;52.154;5.580;2022-08-05T11:27:51;1.70;;;0.30;;
24357;SDS011;13668;52.154;5.580;2022-08-05T11:30:17;1.95;;;0.20;;
24357;SDS011;13668;52.154;5.580;2022-08-05T11:32:43;2.28;;;0.20;;
24357;SDS011;13668;52.154;5.580;2022-08-05T11:35:18;0.93;;;0.20;;
24357;SDS011;13668;52.154;5.580;2022-08-05T11:43:07;3.28;;;0.45;;
24357;SDS011;13668;52.154;5.580;2022-08-05T11:45:45;0.75;;;0.20;;
24357;SDS011;13668;52.154;5.580;2022-08-05T11:48:11;2.17;;;0.13;;
24357;SDS011;13668;52.154;5.580;2022-08-05T11:50:37;0.90;;;0.10;;
24357;SDS011;13668;52.154;5.580;2022-08-05T11:53:03;1.83;;;0.40;;
24357;SDS011;13668;52.154;5.580;2022-08-05T11:55:32;2.85;;;0.25;;
24357;SDS011;13668;52.154;5.580;2022-08-05T11:57:58;0.75;;;0.22;;
24357;SDS011;13668;52.154;5.580;2022-08-05T12:00:25;2.40;;;0.22;;
24357;SDS011;13668;52.154;5.580;2022-08-05T12:02:51;2.83;;;0.25;;
24357;SDS011;13668;52.154;5.580;2022-08-05T12:05:27;0.98;;;0.20;;
24357;SDS011;13668;52.154;5.580;2022-08-05T12:07:56;1.17;;;0.15;;
24357;SDS011;13668;52.154;5.580;2022-08-05T12:10:24;0.93;;;0.28;;
24357;SDS011;13668;52.154;5.580;2022-08-05T12:12:51;1.00;;;0.30;;
24357;SDS011;13668;52.154;5.580;2022-08-05T12:15:17;1.48;;;0.20;;
24357;SDS011;13668;52.154;5.580;2022-08-05T12:17:47;0.45;;;0.20;;
24357;SDS011;13668;52.154;5.580;2022-08-05T12:20:13;2.13;;;0.40;;
24357;SDS011;13668;52.154;5.580;2022-08-05T12:22:39;2.50;;;0.22;;
24357;SDS011;13668;52.154;5.580;2022-08-05T12:25:05;1.33;;;0.20;;
24357;SDS011;13668;52.154;5.580;2022-08-05T12:27:32;1.23;;;0.20;;
24357;SDS011;13668;52.154;5.580;2022-08-05T12:32:24;5.18;;;0.40;;
24357;SDS011;13668;52.154;5.580;2022-08-05T12:34:50;3.72;;;0.40;;
24357;SDS011;13668;52.154;5.580;2022-08-05T12:37:19;1.85;;;0.50;;
24357;SDS011;13668;52.154;5.580;2022-08-05T12:39:45;0.90;;;0.20;;
24357;SDS011;13668;52.154;5.580;2022-08-05T12:42:12;2.47;;;0.30;;
24357;SDS011;13668;52.154;5.580;2022-08-05T12:44:38;1.05;;;0.10;;
24357;SDS011;13668;52.154;5.580;2022-08-05T12:47:04;2.92;;;0.30;;
24357;SDS011;13668;52.154;5.580;2022-08-05T12:50:11;1.02;;;0.20;;
24357;SDS011;13668;52.154;5.580;2022-08-05T12:52:23;0.40;;;0.30;;
24357;SDS011;13668;52.154;5.580;2022-08-05T12:54:49;1.60;;;0.13;;
24357;SDS011;13668;52.154;5.580;2022-08-05T12:57:16;0.40;;;0.20;;
24357;SDS011;13668;52.154;5.580;2022-08-05T12:59:52;4.55;;;0.65;;
24357;SDS011;13668;52.154;5.580;2022-08-05T13:02:20;1.88;;;0.30;;
24357;SDS011;13668;52.154;5.580;2022-08-05T13:04:46;1.52;;;0.38;;
24357;SDS011;13668;52.154;5.580;2022-08-05T13:07:14;0.80;;;0.22;;
24357;SDS011;13668;52.154;5.580;2022-08-05T13:09:41;0.50;;;0.20;;
24357;SDS011;13668;52.154;5.580;2022-08-05T13:12:10;1.85;;;0.30;;
24357;SDS011;13668;52.154;5.580;2022-08-05T13:14:40;0.57;;;0.30;;
24357;SDS011;13668;52.154;5.580;2022-08-05T13:17:07;0.30;;;0.20;;
24357;SDS011;13668;52.154;5.580;2022-08-05T13:19:34;1.45;;;0.20;;
24357;SDS011;13668;52.154;5.580;2022-08-05T13:22:00;3.55;;;1.13;;
24357;SDS011;13668;52.154;5.580;2022-08-05T13:24:26;0.20;;;0.20;;
24357;SDS011;13668;52.154;5.580;2022-08-05T13:26:52;0.47;;;0.20;;
24357;SDS011;13668;52.154;5.580;2022-08-05T13:29:18;1.23;;;0.30;;
24357;SDS011;13668;52.154;5.580;2022-08-05T13:31:44;3.28;;;0.35;;
24357;SDS011;13668;52.154;5.580;2022-08-05T13:34:10;2.80;;;0.30;;
24357;SDS011;13668;52.154;5.580;2022-08-05T13:36:36;2.22;;;0.40;;
24357;SDS011;13668;52.154;5.580;2022-08-05T13:39:03;3.15;;;0.50;;
24357;SDS011;13668;52.154;5.580;2022-08-05T13:41:29;2.42;;;0.40;;
24357;SDS011;13668;52.154;5.580;2022-08-05T13:43:55;1.23;;;0.20;;
24357;SDS011;13668;52.154;5.580;2022-08-05T13:46:24;0.55;;;0.30;;
24357;SDS011;13668;52.154;5.580;2022-08-05T13:48:51;1.33;;;0.45;;
24357;SDS011;13668;52.154;5.580;2022-08-05T13:51:24;1.58;;;0.22;;
24357;SDS011;13668;52.154;5.580;2022-08-05T13:53:50;1.00;;;0.30;;
24357;SDS011;13668;52.154;5.580;2022-08-05T13:56:16;2.83;;;0.47;;
24357;SDS011;13668;52.154;5.580;2022-08-05T13:58:42;0.50;;;0.20;;
24357;SDS011;13668;52.154;5.580;2022-08-05T14:01:08;2.40;;;0.20;;
24357;SDS011;13668;52.154;5.580;2022-08-05T14:03:34;0.20;;;0.20;;
24357;SDS011;13668;52.154;5.580;2022-08-05T14:06:03;0.90;;;0.20;;
24357;SDS011;13668;52.154;5.580;2022-08-05T14:08:29;1.92;;;0.40;;
24357;SDS011;13668;52.154;5.580;2022-08-05T14:10:58;3.80;;;0.45;;
24357;SDS011;13668;52.154;5.580;2022-08-05T14:13:24;1.85;;;0.40;;
24357;SDS011;13668;52.154;5.580;2022-08-05T14:15:51;0.55;;;0.20;;
24357;SDS011;13668;52.154;5.580;2022-08-05T14:18:17;2.35;;;0.52;;
24357;SDS011;13668;52.154;5.580;2022-08-05T14:20:43;1.63;;;0.60;;
24357;SDS011;13668;52.154;5.580;2022-08-05T14:23:09;1.85;;;0.32;;
24357;SDS011;13668;52.154;5.580;2022-08-05T14:25:35;0.43;;;0.20;;
24357;SDS011;13668;52.154;5.580;2022-08-05T14:28:01;4.32;;;0.50;;
24357;SDS011;13668;52.154;5.580;2022-08-05T14:30:27;2.88;;;0.30;;
24357;SDS011;13668;52.154;5.580;2022-08-05T14:32:53;1.38;;;0.22;;
24357;SDS011;13668;52.154;5.580;2022-08-05T14:35:19;1.05;;;0.30;;
24357;SDS011;13668;52.154;5.580;2022-08-05T14:37:45;1.60;;;0.50;;
24357;SDS011;13668;52.154;5.580;2022-08-05T14:40:12;4.47;;;0.30;;
24357;SDS011;13668;52.154;5.580;2022-08-05T14:42:38;0.82;;;0.30;;
24357;SDS011;13668;52.154;5.580;2022-08-05T14:45:05;3.15;;;0.55;;
24357;SDS011;13668;52.154;5.580;2022-08-05T14:47:31;2.05;;;0.45;;
24357;SDS011;13668;52.154;5.580;2022-08-05T14:49:57;0.95;;;0.40;;
24357;SDS011;13668;52.154;5.580;2022-08-05T14:52:23;1.55;;;0.45;;
24357;SDS011;13668;52.154;5.580;2022-08-05T14:54:49;1.27;;;0.30;;
24357;SDS011;13668;52.154;5.580;2022-08-05T14:57:15;2.78;;;0.40;;
24357;SDS011;13668;52.154;5.580;2022-08-05T14:59:41;0.80;;;0.40;;
24357;SDS011;13668;52.154;5.580;2022-08-05T15:02:07;3.13;;;0.43;;
24357;SDS011;13668;52.154;5.580;2022-08-05T15:04:32;1.02;;;0.43;;
24357;SDS011;13668;52.154;5.580;2022-08-05T15:06:58;1.70;;;0.50;;
24357;SDS011;13668;52.154;5.580;2022-08-05T15:09:24;3.92;;;0.40;;
24357;SDS011;13668;52.154;5.580;2022-08-05T15:11:50;4.97;;;0.35;;
24357;SDS011;13668;52.154;5.580;2022-08-05T15:14:17;2.40;;;0.20;;
24357;SDS011;13668;52.154;5.580;2022-08-05T15:16:43;2.17;;;0.35;;
24357;SDS011;13668;52.154;5.580;2022-08-05T15:19:08;1.25;;;0.30;;
24357;SDS011;13668;52.154;5.580;2022-08-05T15:21:34;2.17;;;0.40;;
24357;SDS011;13668;52.154;5.580;2022-08-05T15:24:00;1.65;;;0.40;;
24357;SDS011;13668;52.154;5.580;2022-08-05T15:26:26;4.00;;;0.50;;
24357;SDS011;13668;52.154;5.580;2022-08-05T15:28:52;4.15;;;0.60;;
24357;SDS011;13668;52.154;5.580;2022-08-05T15:31:18;2.70;;;0.70;;